Time;durP1;ratioP1;P1;durP2;ratioP2;P2;SDS_P1;SDS_P2;PMS_P1;PMS_P2;Temp;Humidity;BMP_temperature;BMP_pressure;BME280_temperature;BME280_humidity;BME280_pressure;Samples;Min_cycle;Max_cycle;Signal;HPM_P1;HPM_P2
2022/01/12 00:01:40;;;;;;;240.18;67.95;;;;;;;;;;5107672;28;20054;-74
2022/01/12 00:04:07;;;;;;;219.33;68.07;;;;;;;;;;5111398;28;20051;-73
2022/01/12 00:06:33;;;;;;;214.05;64.80;;;;;;;;;;5111656;28;20052;-73
2022/01/12 00:09:05;;;;;;;243.60;69.47;;;;;;;;;;5109327;28;20107;-73
2022/01/12 00:11:31;;;;;;;250.88;68.20;;;;;;;;;;5132064;28;20118;-74
2022/01/12 00:13:57;;;;;;;218.27;66.45;;;;;;;;;;5104390;28;20047;-74
2022/01/12 00:16:23;;;;;;;266.00;67.63;;;;;;;;;;5111486;28;20044;-74
2022/01/12 00:18:50;;;;;;;251.10;70.07;;;;;;;;;;5117571;27;20122;-73
2022/01/12 00:21:16;;;;;;;281.48;70.40;;;;;;;;;;5131071;27;20042;-73
2022/01/12 00:23:42;;;;;;;;;;;;;;;;;;5136640;27;20043;-72
2022/01/12 00:26:25;;;;;;;289.05;71.65;;;;;;;;;;5135390;27;20014;-72
2022/01/12 00:34:20;;;;;;;303.42;75.22;;;;;;;;;;5114834;28;20475;-73
2022/01/12 00:36:47;;;;;;;292.95;72.90;;;;;;;;;;5115833;28;20445;-73
2022/01/12 00:39:13;;;;;;;287.13;74.82;;;;;;;;;;5109455;28;20043;-73
2022/01/12 00:41:41;;;;;;;254.57;68.47;;;;;;;;;;5119895;27;20054;-73
2022/01/12 00:44:09;;;;;;;308.50;73.03;;;;;;;;;;5135760;27;20118;-73
2022/01/12 00:46:36;;;;;;;291.23;74.20;;;;;;;;;;5113610;27;20479;-73
2022/01/12 00:49:02;;;;;;;307.83;69.47;;;;;;;;;;5095656;28;20040;-73
2022/01/12 00:51:32;;;;;;;308.15;74.57;;;;;;;;;;5102455;27;20043;-73
2022/01/12 00:53:59;;;;;;;388.70;76.80;;;;;;;;;;5115545;28;20040;-74
2022/01/12 00:56:25;;;;;;;350.02;76.57;;;;;;;;;;5114486;28;20047;-73
2022/01/12 00:58:51;;;;;;;356.42;76.55;;;;;;;;;;5114952;28;20100;-74
2022/01/12 01:01:18;;;;;;;416.58;81.40;;;;;;;;;;5111603;27;21819;-73
2022/01/12 01:03:45;;;;;;;448.17;82.32;;;;;;;;;;5110804;28;20043;-74
2022/01/12 01:06:11;;;;;;;396.50;83.22;;;;;;;;;;5094452;28;20049;-73
2022/01/12 01:08:38;;;;;;;351.95;77.97;;;;;;;;;;5072739;28;20458;-73
2022/01/12 01:11:04;;;;;;;448.60;90.82;;;;;;;;;;5075070;28;20048;-74
2022/01/12 01:13:38;;;;;;;540.05;94.63;;;;;;;;;;5091221;28;20353;-73
2022/01/12 01:16:18;;;;;;;410.42;82.18;;;;;;;;;;5095437;28;20059;-72
2022/01/12 01:26:59;;;;;;;470.48;85.40;;;;;;;;;;5095388;28;20048;-71
2022/01/12 01:29:25;;;;;;;;;;;;;;;;;;5095205;28;20070;-72
2022/01/12 01:31:51;;;;;;;454.25;82.50;;;;;;;;;;5095421;28;19919;-71
2022/01/12 01:34:17;;;;;;;533.17;89.20;;;;;;;;;;5077309;28;20086;-79
2022/01/12 01:36:45;;;;;;;574.28;85.18;;;;;;;;;;5077665;28;20047;-71
2022/01/12 01:39:13;;;;;;;591.50;88.60;;;;;;;;;;5094887;28;20039;-71
2022/01/12 01:41:42;;;;;;;487.65;78.90;;;;;;;;;;5094956;28;20070;-71
2022/01/12 01:54:55;;;;;;;440.25;70.10;;;;;;;;;;5095287;28;20048;-71
2022/01/12 01:57:21;;;;;;;419.33;69.90;;;;;;;;;;5095034;28;20044;-79
2022/01/12 01:59:47;;;;;;;454.75;76.88;;;;;;;;;;5094587;28;20131;-72
2022/01/12 02:02:14;;;;;;;424.70;69.60;;;;;;;;;;5094205;28;20419;-70
2022/01/12 02:04:40;;;;;;;432.27;69.90;;;;;;;;;;5095210;28;20115;-71
2022/01/12 02:07:07;;;;;;;437.95;73.00;;;;;;;;;;5099891;28;20056;-70
2022/01/12 02:09:34;;;;;;;410.58;68.88;;;;;;;;;;5096596;28;20052;-71
2022/01/12 02:12:01;;;;;;;379.10;68.20;;;;;;;;;;5096852;28;20055;-71
2022/01/12 02:14:28;;;;;;;378.98;66.70;;;;;;;;;;5114446;28;20046;-72
2022/01/12 02:17:04;;;;;;;410.05;70.97;;;;;;;;;;5097166;28;20051;-71
2022/01/12 02:36:27;;;;;;;312.38;61.50;;;;;;;;;;5114065;28;20087;-72
2022/01/12 02:41:39;;;;;;;274.38;56.70;;;;;;;;;;5113516;28;20047;-72
2022/01/12 02:54:48;;;;;;;242.77;52.50;;;;;;;;;;5113918;28;20188;-72
2022/01/12 02:57:14;;;;;;;304.33;55.88;;;;;;;;;;5129803;27;20134;-72
2022/01/12 03:00:03;;;;;;;231.55;52.38;;;;;;;;;;5112998;28;20092;-72
2022/01/12 03:02:39;;;;;;;235.38;53.58;;;;;;;;;;5113265;28;20055;-79
2022/01/12 03:05:32;;;;;;;217.32;52.33;;;;;;;;;;5113898;28;20051;-72
2022/01/12 03:08:02;;;;;;;248.10;58.05;;;;;;;;;;5079032;28;20056;-72
2022/01/12 03:10:29;;;;;;;258.70;57.72;;;;;;;;;;5055607;28;20052;-72
2022/01/12 03:12:55;;;;;;;233.55;55.33;;;;;;;;;;5073019;28;20048;-72
2022/01/12 03:15:21;;;;;;;269.35;54.67;;;;;;;;;;5072943;28;20045;-72
2022/01/12 03:17:47;;;;;;;239.02;53.13;;;;;;;;;;5072742;28;20442;-72
2022/01/12 03:20:13;;;;;;;222.80;51.45;;;;;;;;;;5072693;28;20504;-72
2022/01/12 03:22:39;;;;;;;217.35;53.17;;;;;;;;;;5072801;28;20090;-72
2022/01/12 03:25:05;;;;;;;248.27;55.17;;;;;;;;;;5071321;28;20155;-72
2022/01/12 03:27:32;;;;;;;245.88;50.33;;;;;;;;;;5071333;28;20075;-79
2022/01/12 03:29:58;;;;;;;267.42;56.08;;;;;;;;;;5072723;28;20079;-72
2022/01/12 03:32:44;;;;;;;395.95;59.10;;;;;;;;;;5073201;28;20048;-72
2022/01/12 03:35:23;;;;;;;624.70;73.00;;;;;;;;;;5072885;28;20040;-72
2022/01/12 03:38:19;;;;;;;849.92;84.97;;;;;;;;;;5071845;28;20053;-72
2022/01/12 03:40:38;;;;;;;853.05;87.25;;;;;;;;;;5072426;28;20484;-73
2022/01/12 03:43:04;;;;;;;824.35;82.18;;;;;;;;;;5071034;28;20480;-72
2022/01/12 03:45:30;;;;;;;885.17;89.30;;;;;;;;;;5072347;28;20040;-72
2022/01/12 03:47:56;;;;;;;680.47;65.10;;;;;;;;;;5072604;28;20060;-72
2022/01/12 03:50:23;;;;;;;847.75;74.63;;;;;;;;;;5072442;28;20070;-73
2022/01/12 03:52:49;;;;;;;947.75;93.65;;;;;;;;;;5073217;28;20131;-72
2022/01/12 03:55:15;;;;;;;726.55;75.32;;;;;;;;;;5076421;28;20051;-72
2022/01/12 03:57:41;;;;;;;566.05;67.38;;;;;;;;;;5075723;28;20403;-72
2022/01/12 04:00:07;;;;;;;812.85;74.55;;;;;;;;;;5075665;28;20136;-72
2022/01/12 04:02:34;;;;;;;734.72;78.03;;;;;;;;;;5076454;28;20048;-72
2022/01/12 04:05:28;;;;;;;858.30;81.15;;;;;;;;;;5076419;28;20040;-72
2022/01/12 04:10:38;;;;;;;661.40;69.43;;;;;;;;;;5116983;28;20071;-79
2022/01/12 04:13:04;;;;;;;654.47;67.70;;;;;;;;;;5116950;28;20093;-72
2022/01/12 04:15:31;;;;;;;812.75;82.03;;;;;;;;;;5099354;28;20059;-71
2022/01/12 04:17:57;;;;;;;596.83;56.67;;;;;;;;;;5115941;27;20043;-71
2022/01/12 04:20:24;;;;;;;680.97;69.15;;;;;;;;;;5116937;28;20048;-71
2022/01/12 04:25:34;;;;;;;485.83;57.53;;;;;;;;;;5116427;28;20047;-71
2022/01/12 04:28:00;;;;;;;842.15;89.63;;;;;;;;;;5116486;28;20394;-72
2022/01/12 04:30:26;;;;;;;456.45;50.10;;;;;;;;;;5116934;28;20508;-72
2022/01/12 04:32:52;;;;;;;603.13;65.68;;;;;;;;;;5115227;28;20501;-72
2022/01/12 04:35:24;;;;;;;648.22;68.18;;;;;;;;;;5115279;28;20467;-72
2022/01/12 04:37:50;;;;;;;457.20;49.13;;;;;;;;;;5117038;28;20140;-72
2022/01/12 04:40:17;;;;;;;537.78;60.80;;;;;;;;;;5116216;28;20047;-72
2022/01/12 04:42:43;;;;;;;652.17;66.60;;;;;;;;;;5116126;28;20498;-78
2022/01/12 04:45:33;;;;;;;398.25;45.83;;;;;;;;;;5131964;27;20495;-72
2022/01/12 04:48:08;;;;;;;508.10;54.75;;;;;;;;;;5131960;27;20057;-73
2022/01/12 04:50:37;;;;;;;404.77;42.70;;;;;;;;;;5116144;28;20130;-73
2022/01/12 04:53:03;;;;;;;477.15;50.28;;;;;;;;;;5115855;28;20047;-73
2022/01/12 04:55:29;;;;;;;512.17;48.88;;;;;;;;;;5115838;28;20069;-73
2022/01/12 04:57:55;;;;;;;503.65;53.63;;;;;;;;;;5116197;28;20039;-71
2022/01/12 05:00:22;;;;;;;534.95;54.90;;;;;;;;;;5115780;28;20047;-71
2022/01/12 05:14:00;;;;;;;344.60;35.15;;;;;;;;;;5115444;28;20073;-72
2022/01/12 05:16:26;;;;;;;351.43;36.73;;;;;;;;;;5131424;27;20051;-72
2022/01/12 05:18:53;;;;;;;291.87;33.77;;;;;;;;;;5097269;28;20039;-72
2022/01/12 05:21:20;;;;;;;348.57;40.07;;;;;;;;;;5115440;28;20047;-72
2022/01/12 05:23:46;;;;;;;371.10;36.67;;;;;;;;;;5097000;28;20471;-72
2022/01/12 05:26:12;;;;;;;378.60;38.72;;;;;;;;;;5115483;28;20046;-72
2022/01/12 05:28:39;;;;;;;291.95;31.85;;;;;;;;;;5115504;28;20043;-72
2022/01/12 05:31:08;;;;;;;310.40;34.10;;;;;;;;;;5098039;28;20040;-72
2022/01/12 05:33:36;;;;;;;367.23;33.87;;;;;;;;;;5116071;28;20044;-73
2022/01/12 05:36:04;;;;;;;408.35;42.85;;;;;;;;;;5115371;28;20048;-73
2022/01/12 05:38:30;;;;;;;378.67;40.07;;;;;;;;;;5097801;28;20051;-72
2022/01/12 05:40:58;;;;;;;294.33;36.20;;;;;;;;;;5130968;27;20403;-73
2022/01/12 05:43:27;;;;;;;319.33;35.00;;;;;;;;;;5131172;27;20115;-73
2022/01/12 05:45:54;;;;;;;426.33;42.27;;;;;;;;;;5096559;28;20059;-80
2022/01/12 05:50:48;;;;;;;328.73;39.28;;;;;;;;;;5115013;28;20498;-74
2022/01/12 05:53:14;;;;;;;397.60;45.25;;;;;;;;;;5115093;28;20055;-73
2022/01/12 05:55:40;;;;;;;;;;;;;;;;;;5115192;28;20131;-73
2022/01/12 05:58:07;;;;;;;237.73;29.63;;;;;;;;;;5114851;28;20012;-73
2022/01/12 06:00:33;;;;;;;340.48;37.92;;;;;;;;;;5115177;28;20039;-73
2022/01/12 06:02:59;;;;;;;308.50;36.25;;;;;;;;;;5096861;28;20539;-73
2022/01/12 06:05:25;;;;;;;430.65;42.67;;;;;;;;;;5114693;28;20108;-74
2022/01/12 06:07:52;;;;;;;449.55;43.08;;;;;;;;;;5114401;28;20055;-74
2022/01/12 06:10:21;;;;;;;413.98;42.42;;;;;;;;;;5114298;28;20499;-73
2022/01/12 06:12:47;;;;;;;506.47;49.67;;;;;;;;;;5114452;28;20130;-73
2022/01/12 06:15:13;;;;;;;322.77;38.35;;;;;;;;;;5096103;28;20083;-73
2022/01/12 06:17:39;;;;;;;444.42;46.75;;;;;;;;;;5130217;27;20475;-73
2022/01/12 06:20:08;;;;;;;433.95;46.15;;;;;;;;;;5114512;28;20047;-73
2022/01/12 06:22:37;;;;;;;321.73;36.70;;;;;;;;;;5114284;28;20055;-74
2022/01/12 06:25:08;;;;;;;424.20;45.80;;;;;;;;;;5112597;28;20043;-76
2022/01/12 06:27:34;;;;;;;453.47;43.10;;;;;;;;;;5114562;28;20060;-77
2022/01/12 06:31:10;;;;;;;449.70;45.58;;;;;;;;;;5095666;28;20059;-80
2022/01/12 06:32:49;;;;;;;250.97;33.47;;;;;;;;;;5114302;28;20047;-74
2022/01/12 06:35:15;;;;;;;363.52;44.88;;;;;;;;;;5096043;28;20058;-74
2022/01/12 06:37:41;;;;;;;388.10;40.30;;;;;;;;;;5095746;28;20044;-73
2022/01/12 06:40:08;;;;;;;340.27;40.33;;;;;;;;;;5113984;28;20093;-74
2022/01/12 06:42:34;;;;;;;309.75;33.10;;;;;;;;;;5096394;28;20378;-74
2022/01/12 06:45:00;;;;;;;307.13;34.53;;;;;;;;;;5114244;28;20039;-84
2022/01/12 06:47:26;;;;;;;392.13;39.90;;;;;;;;;;5112587;28;20043;-72
2022/01/12 06:49:52;;;;;;;446.65;44.53;;;;;;;;;;5095944;28;20048;-72
2022/01/12 06:52:18;;;;;;;437.23;39.78;;;;;;;;;;5113831;28;20081;-72
2022/01/12 06:54:44;;;;;;;354.45;36.03;;;;;;;;;;5113753;28;20043;-72
2022/01/12 06:57:10;;;;;;;341.85;38.50;;;;;;;;;;5113691;28;20043;-73
2022/01/12 06:59:36;;;;;;;249.90;33.88;;;;;;;;;;5095737;28;20035;-73
2022/01/12 07:02:03;;;;;;;364.50;42.00;;;;;;;;;;5129939;27;20116;-80
2022/01/12 07:04:29;;;;;;;236.20;34.42;;;;;;;;;;5114242;28;20122;-73
2022/01/12 07:06:55;;;;;;;325.23;38.30;;;;;;;;;;5129406;27;20043;-72
2022/01/12 07:09:21;;;;;;;312.10;34.33;;;;;;;;;;5113246;28;20475;-72
2022/01/12 07:11:48;;;;;;;235.05;30.52;;;;;;;;;;5096411;28;20126;-72
2022/01/12 07:14:14;;;;;;;296.73;34.97;;;;;;;;;;5095278;28;20068;-72
2022/01/12 07:16:40;;;;;;;414.13;40.88;;;;;;;;;;5113163;28;20494;-73
2022/01/12 07:19:06;;;;;;;422.40;41.45;;;;;;;;;;5112265;28;20043;-73
2022/01/12 07:21:33;;;;;;;423.75;38.42;;;;;;;;;;5095301;28;20047;-73
2022/01/12 07:23:59;;;;;;;377.77;37.80;;;;;;;;;;5113862;28;20078;-73
2022/01/12 07:26:25;;;;;;;423.30;38.63;;;;;;;;;;5113645;28;20040;-73
2022/01/12 07:28:53;;;;;;;374.17;35.15;;;;;;;;;;5112367;28;20104;-73
2022/01/12 07:31:19;;;;;;;176.02;24.60;;;;;;;;;;5113320;28;20092;-76
2022/01/12 07:33:45;;;;;;;266.95;35.60;;;;;;;;;;5112955;28;20043;-78
2022/01/12 07:36:12;;;;;;;268.52;32.35;;;;;;;;;;5112596;28;20116;-75
2022/01/12 07:38:38;;;;;;;152.40;24.83;;;;;;;;;;5094557;28;20074;-74
2022/01/12 07:41:04;;;;;;;203.07;30.80;;;;;;;;;;5128233;28;20044;-73
2022/01/12 07:43:30;;;;;;;166.02;28.52;;;;;;;;;;5111668;28;20046;-74
2022/01/12 07:45:56;;;;;;;216.43;29.08;;;;;;;;;;5111602;28;20039;-74
2022/01/12 07:48:23;;;;;;;140.52;29.80;;;;;;;;;;5111858;28;20051;-74
2022/01/12 07:50:49;;;;;;;192.17;30.13;;;;;;;;;;5110940;28;20048;-73
2022/01/12 07:53:15;;;;;;;191.10;29.00;;;;;;;;;;5110853;28;20142;-74
2022/01/12 07:55:41;;;;;;;237.57;29.48;;;;;;;;;;5110883;28;20367;-74
2022/01/12 07:58:09;;;;;;;308.95;36.47;;;;;;;;;;5110645;28;20048;-74
2022/01/12 08:00:35;;;;;;;165.07;27.47;;;;;;;;;;5126772;28;20079;-74
2022/01/12 08:03:01;;;;;;;279.27;35.00;;;;;;;;;;5110852;28;20475;-74
2022/01/12 08:05:27;;;;;;;156.35;26.13;;;;;;;;;;5126414;28;20039;-74
2022/01/12 08:07:55;;;;;;;140.98;25.23;;;;;;;;;;5110815;28;20055;-74
2022/01/12 08:10:21;;;;;;;223.00;28.67;;;;;;;;;;5110795;28;20098;-75
2022/01/12 08:12:48;;;;;;;173.27;24.45;;;;;;;;;;5110698;28;20479;-74
2022/01/12 08:15:14;;;;;;;313.60;35.33;;;;;;;;;;5110683;28;20054;-76
2022/01/12 08:17:41;;;;;;;357.27;36.47;;;;;;;;;;5111120;28;20043;-74
2022/01/12 08:20:10;;;;;;;208.45;30.48;;;;;;;;;;5126736;28;20101;-74
2022/01/12 08:22:36;;;;;;;206.27;30.87;;;;;;;;;;5110583;28;20050;-74
2022/01/12 08:25:03;;;;;;;218.90;30.52;;;;;;;;;;5126375;28;20039;-74
2022/01/12 08:27:29;;;;;;;;;;;;;;;;;;5111040;28;20044;-74
2022/01/12 08:30:00;;;;;;;89.47;23.03;;;;;;;;;;5110516;28;19919;-73
2022/01/12 08:32:27;;;;;;;211.30;30.93;;;;;;;;;;5110678;28;20057;-81
2022/01/12 08:34:53;;;;;;;154.60;25.53;;;;;;;;;;5110592;28;20044;-73
2022/01/12 08:37:19;;;;;;;102.53;18.52;;;;;;;;;;5110395;28;20049;-74
2022/01/12 08:39:45;;;;;;;193.60;25.17;;;;;;;;;;5093419;28;20094;-81
2022/01/12 08:42:11;;;;;;;236.27;29.00;;;;;;;;;;5114292;28;20054;-85
2022/01/12 08:44:37;;;;;;;214.45;24.98;;;;;;;;;;5096590;28;20107;-74
2022/01/12 08:47:05;;;;;;;120.53;22.65;;;;;;;;;;5114045;28;20106;-74
2022/01/12 08:49:31;;;;;;;115.63;22.43;;;;;;;;;;5113982;28;20043;-73
2022/01/12 08:51:57;;;;;;;152.15;28.58;;;;;;;;;;5096049;28;20048;-74
2022/01/12 08:54:23;;;;;;;164.90;27.83;;;;;;;;;;5113426;28;20200;-73
2022/01/12 08:56:49;;;;;;;116.05;24.00;;;;;;;;;;5113910;28;20054;-73
2022/01/12 08:59:17;;;;;;;153.82;28.65;;;;;;;;;;5095552;28;20119;-73
2022/01/12 09:01:43;;;;;;;189.87;27.10;;;;;;;;;;5095520;28;20134;-73
2022/01/12 09:04:09;;;;;;;201.63;27.40;;;;;;;;;;5113918;28;20359;-72
2022/01/12 09:06:36;;;;;;;228.60;31.05;;;;;;;;;;5113624;28;20047;-73
2022/01/12 09:09:02;;;;;;;207.90;26.33;;;;;;;;;;5113272;28;20052;-73
2022/01/12 09:11:29;;;;;;;295.63;27.47;;;;;;;;;;5113532;28;20067;-73
2022/01/12 09:13:55;;;;;;;285.58;26.98;;;;;;;;;;5113601;28;20083;-73
2022/01/12 09:16:21;;;;;;;233.63;24.98;;;;;;;;;;5113507;28;20039;-73
2022/01/12 09:18:47;;;;;;;243.35;27.13;;;;;;;;;;5095358;28;20089;-71
2022/01/12 09:21:13;;;;;;;215.25;24.13;;;;;;;;;;5112194;28;20460;-72
2022/01/12 09:23:39;;;;;;;185.45;21.85;;;;;;;;;;5112245;28;20051;-72
2022/01/12 09:26:06;;;;;;;333.20;30.73;;;;;;;;;;5113389;28;20089;-73
2022/01/12 09:28:32;;;;;;;337.40;27.73;;;;;;;;;;5113123;28;20055;-73
2022/01/12 09:30:58;;;;;;;;;;;;;;;;;;5095357;28;20052;-73
2022/01/12 09:33:24;;;;;;;314.33;27.97;;;;;;;;;;5112348;28;20389;-76
2022/01/12 09:35:52;;;;;;;215.07;22.10;;;;;;;;;;5095042;28;20572;-73
2022/01/12 09:38:19;;;;;;;247.40;23.63;;;;;;;;;;5095218;28;20483;-73
2022/01/12 09:40:46;;;;;;;227.43;26.10;;;;;;;;;;5112413;28;20066;-73
2022/01/12 09:43:12;;;;;;;179.30;23.73;;;;;;;;;;5112763;28;20048;-75
2022/01/12 09:45:43;;;;;;;232.40;26.00;;;;;;;;;;5112867;28;20105;-74
2022/01/12 09:48:10;;;;;;;160.07;20.70;;;;;;;;;;5111297;28;20487;-74
2022/01/12 09:50:36;;;;;;;221.27;24.77;;;;;;;;;;5112265;28;20104;-74
2022/01/12 09:53:02;;;;;;;151.15;22.33;;;;;;;;;;5111421;28;20055;-73
2022/01/12 09:55:28;;;;;;;122.35;19.38;;;;;;;;;;5112626;28;20075;-93
2022/01/12 09:57:54;;;;;;;152.65;20.38;;;;;;;;;;5094306;28;20043;-74
2022/01/12 10:00:25;;;;;;;126.80;18.13;;;;;;;;;;5112566;28;20051;-74
2022/01/12 10:02:51;;;;;;;162.17;20.33;;;;;;;;;;5128375;27;20380;-75
2022/01/12 10:05:18;;;;;;;250.57;23.90;;;;;;;;;;5113158;28;20035;-75
2022/01/12 10:07:44;;;;;;;;;;;;;;;;;;5091052;28;20056;-74
2022/01/12 10:10:14;;;;;;;153.57;22.87;;;;;;;;;;5092773;28;19927;-74
2022/01/12 10:12:41;;;;;;;180.27;23.07;;;;;;;;;;5092557;28;20064;-74
2022/01/12 10:15:11;;;;;;;145.98;21.67;;;;;;;;;;5090768;28;20494;-74
2022/01/12 10:17:40;;;;;;;125.17;21.03;;;;;;;;;;5092494;28;20153;-74
2022/01/12 10:20:06;;;;;;;258.30;26.10;;;;;;;;;;5092052;28;20101;-74
2022/01/12 10:22:33;;;;;;;291.15;32.83;;;;;;;;;;5091931;28;20484;-88
2022/01/12 10:25:01;;;;;;;166.20;22.75;;;;;;;;;;5091893;28;20040;-74
2022/01/12 10:27:27;;;;;;;207.60;26.23;;;;;;;;;;5073736;28;20048;-73
2022/01/12 10:29:58;;;;;;;245.15;26.50;;;;;;;;;;5090904;28;20441;-74
2022/01/12 10:32:24;;;;;;;186.87;24.53;;;;;;;;;;5092412;28;20052;-73
2022/01/12 10:34:50;;;;;;;166.00;25.27;;;;;;;;;;5091572;28;20050;-76
2022/01/12 10:37:26;;;;;;;231.87;30.07;;;;;;;;;;5074212;28;20448;-74
2022/01/12 10:39:53;;;;;;;189.47;23.60;;;;;;;;;;5090746;28;20052;-73
2022/01/12 10:42:23;;;;;;;137.20;19.03;;;;;;;;;;5092045;28;20044;-74
2022/01/12 10:44:51;;;;;;;184.43;22.03;;;;;;;;;;5091333;28;20512;-73
2022/01/12 10:47:17;;;;;;;112.10;18.43;;;;;;;;;;5091407;28;20055;-73
2022/01/12 10:49:56;;;;;;;244.35;23.65;;;;;;;;;;5090029;28;20177;-73
2022/01/12 10:52:23;;;;;;;145.93;19.63;;;;;;;;;;5090019;28;20130;-74
2022/01/12 10:54:54;;;;;;;166.85;21.27;;;;;;;;;;5089981;28;20044;-74
2022/01/12 10:57:22;;;;;;;148.87;19.60;;;;;;;;;;5092177;28;20067;-73
2022/01/12 11:00:00;;;;;;;131.45;18.63;;;;;;;;;;5073466;28;20055;-73
2022/01/12 11:02:27;;;;;;;147.85;21.40;;;;;;;;;;5090683;28;20063;-72
2022/01/12 11:04:54;;;;;;;162.57;20.80;;;;;;;;;;5091325;28;20185;-73
2022/01/12 11:07:20;;;;;;;167.68;22.40;;;;;;;;;;5076762;28;20079;-73
2022/01/12 11:09:46;;;;;;;116.95;20.90;;;;;;;;;;5111391;28;20055;-76
2022/01/12 11:12:15;;;;;;;119.22;21.60;;;;;;;;;;5093366;28;20086;-73
2022/01/12 11:14:41;;;;;;;148.55;23.83;;;;;;;;;;5093339;28;20394;-74
2022/01/12 11:17:07;;;;;;;133.10;19.85;;;;;;;;;;5094015;28;20058;-73
2022/01/12 11:19:34;;;;;;;101.10;20.42;;;;;;;;;;5111078;28;20487;-73
2022/01/12 11:22:08;;;;;;;169.90;26.02;;;;;;;;;;5111275;28;20122;-74
2022/01/12 11:24:34;;;;;;;105.82;22.20;;;;;;;;;;5112075;28;20448;-74
2022/01/12 11:27:03;;;;;;;137.73;26.17;;;;;;;;;;5111500;28;20393;-73
2022/01/12 11:29:32;;;;;;;122.28;23.80;;;;;;;;;;5111379;28;20044;-72
2022/01/12 11:32:05;;;;;;;96.57;23.00;;;;;;;;;;5110289;28;20096;-73
2022/01/12 11:34:31;;;;;;;117.68;24.23;;;;;;;;;;5111295;28;20039;-73
2022/01/12 11:36:57;;;;;;;136.13;25.17;;;;;;;;;;5111269;28;20048;-73
2022/01/12 11:39:23;;;;;;;135.70;25.77;;;;;;;;;;5093201;28;20083;-72
2022/01/12 11:41:49;;;;;;;116.10;24.15;;;;;;;;;;5093591;28;20039;-74
2022/01/12 11:44:23;;;;;;;127.65;27.02;;;;;;;;;;5092603;28;20510;-72
2022/01/12 11:46:49;;;;;;;128.27;28.20;;;;;;;;;;5111677;28;20130;-73
2022/01/12 11:49:25;;;;;;;144.02;28.98;;;;;;;;;;5111178;28;20173;-74
2022/01/12 11:51:51;;;;;;;134.23;31.73;;;;;;;;;;5092866;28;20047;-73
2022/01/12 11:54:20;;;;;;;130.10;27.45;;;;;;;;;;5111228;28;20043;-73
2022/01/12 11:56:54;;;;;;;109.60;28.13;;;;;;;;;;5111135;28;20139;-73
2022/01/12 11:59:21;;;;;;;123.43;29.00;;;;;;;;;;5111364;28;20051;-74
2022/01/12 12:01:49;;;;;;;128.48;30.45;;;;;;;;;;5093239;28;20048;-77
2022/01/12 12:04:28;;;;;;;166.15;30.38;;;;;;;;;;5111054;28;20055;-72
2022/01/12 12:07:02;;;;;;;160.88;29.27;;;;;;;;;;5092281;28;20063;-72
2022/01/12 12:09:35;;;;;;;138.60;26.70;;;;;;;;;;5111156;28;20543;-72
2022/01/12 12:12:02;;;;;;;118.00;27.63;;;;;;;;;;5092868;28;20048;-73
2022/01/12 12:14:28;;;;;;;110.22;28.15;;;;;;;;;;5112979;28;20489;-73
2022/01/12 12:16:54;;;;;;;133.27;29.50;;;;;;;;;;5113844;28;20073;-72
2022/01/12 12:19:21;;;;;;;142.93;29.17;;;;;;;;;;5114748;28;20047;-72
2022/01/12 12:21:48;;;;;;;156.07;30.52;;;;;;;;;;5114653;28;20394;-73
2022/01/12 12:24:15;;;;;;;149.00;32.03;;;;;;;;;;5114039;28;20070;-73
2022/01/12 12:26:44;;;;;;;151.10;33.90;;;;;;;;;;5114627;28;20122;-73
2022/01/12 12:29:11;;;;;;;178.43;34.10;;;;;;;;;;5096320;28;20055;-73
2022/01/12 12:31:39;;;;;;;181.60;37.03;;;;;;;;;;5114527;28;20134;-74
2022/01/12 12:34:06;;;;;;;144.18;32.92;;;;;;;;;;5114291;28;20079;-74
2022/01/12 12:36:33;;;;;;;200.68;36.55;;;;;;;;;;5096257;28;20047;-73
2022/01/12 12:39:07;;;;;;;160.43;35.38;;;;;;;;;;5113953;28;20098;-73
2022/01/12 12:41:40;;;;;;;134.07;33.13;;;;;;;;;;5130269;27;20069;-72
2022/01/12 12:44:06;;;;;;;144.30;33.95;;;;;;;;;;5130360;27;20102;-72
2022/01/12 12:46:32;;;;;;;;;;;;;;;;;;5131059;27;20073;-73
2022/01/12 12:48:58;;;;;;;146.15;34.30;;;;;;;;;;5130145;27;19923;-72
2022/01/12 12:51:25;;;;;;;151.80;35.40;;;;;;;;;;5114317;28;20184;-73
2022/01/12 12:53:56;;;;;;;;;;;;;;;;;;5131104;27;20185;-72
2022/01/12 12:56:27;;;;;;;153.38;34.53;;;;;;;;;;5096179;28;19920;-73
2022/01/12 12:58:54;;;;;;;158.45;34.28;;;;;;;;;;5113936;28;20078;-72
2022/01/12 13:01:21;;;;;;;159.43;35.10;;;;;;;;;;5114095;28;20043;-74
2022/01/12 13:03:48;;;;;;;135.60;29.80;;;;;;;;;;5130090;27;20044;-73
2022/01/12 13:06:28;;;;;;;128.40;32.20;;;;;;;;;;5113819;28;20043;-72
2022/01/12 13:08:55;;;;;;;108.25;27.48;;;;;;;;;;5091764;28;20130;-72
2022/01/12 13:11:28;;;;;;;124.03;29.20;;;;;;;;;;5092470;28;20386;-73
2022/01/12 13:14:01;;;;;;;108.75;28.70;;;;;;;;;;5093393;28;20107;-72
2022/01/12 13:16:28;;;;;;;106.70;29.02;;;;;;;;;;5092848;28;20143;-72
2022/01/12 13:19:06;;;;;;;96.30;26.88;;;;;;;;;;5093563;28;20158;-72
2022/01/12 13:21:37;;;;;;;98.47;25.77;;;;;;;;;;5092464;28;20534;-73
2022/01/12 13:24:03;;;;;;;99.38;26.30;;;;;;;;;;5093104;28;20147;-72
2022/01/12 13:26:31;;;;;;;98.90;25.77;;;;;;;;;;5074952;28;20056;-73
2022/01/12 13:29:00;;;;;;;85.38;25.92;;;;;;;;;;5093103;28;20193;-72
2022/01/12 13:31:27;;;;;;;114.30;28.75;;;;;;;;;;5091742;28;20052;-72
2022/01/12 13:33:54;;;;;;;95.68;25.95;;;;;;;;;;5093380;28;20044;-72
2022/01/12 13:36:20;;;;;;;;;;;;;;;;;;5091759;28;20426;-72
2022/01/12 13:38:47;;;;;;;98.40;27.08;;;;;;;;;;5091718;28;20335;-71
2022/01/12 13:41:18;;;;;;;79.55;26.02;;;;;;;;;;5091632;28;20083;-72
2022/01/12 13:43:49;;;;;;;98.90;29.20;;;;;;;;;;5092832;28;20081;-72
2022/01/12 13:46:18;;;;;;;101.05;29.95;;;;;;;;;;5090819;28;20044;-73
2022/01/12 13:49:21;;;;;;;87.18;27.73;;;;;;;;;;5092947;28;20071;-72
2022/01/12 13:52:09;;;;;;;95.28;27.95;;;;;;;;;;5092494;28;20056;-71
2022/01/12 13:54:37;;;;;;;71.35;25.00;;;;;;;;;;5091916;28;20142;-71
2022/01/12 13:57:04;;;;;;;71.97;24.60;;;;;;;;;;5092308;28;20055;-77
2022/01/12 13:59:32;;;;;;;77.15;24.15;;;;;;;;;;5092359;28;20047;-71
2022/01/12 14:01:58;;;;;;;65.20;23.90;;;;;;;;;;5092792;28;20182;-70
2022/01/12 14:04:25;;;;;;;68.82;23.38;;;;;;;;;;5092287;28;20106;-71
2022/01/12 14:06:53;;;;;;;61.67;22.30;;;;;;;;;;5092419;28;20052;-71
2022/01/12 14:09:30;;;;;;;67.45;22.95;;;;;;;;;;5112671;28;20063;-72
2022/01/12 14:11:57;;;;;;;75.47;24.90;;;;;;;;;;5112567;28;20062;-71
2022/01/12 14:14:24;;;;;;;63.33;24.40;;;;;;;;;;5095085;28;20066;-70
2022/01/12 14:16:50;;;;;;;;;;;;;;;;;;5111797;28;20494;-71
2022/01/12 14:19:17;;;;;;;65.65;23.88;;;;;;;;;;5112158;28;19919;-73
2022/01/12 14:21:56;;;;;;;60.97;22.92;;;;;;;;;;5112199;28;20148;-73
2022/01/12 14:24:22;;;;;;;62.30;22.23;;;;;;;;;;5111820;28;20048;-71
2022/01/12 14:26:48;;;;;;;60.15;22.27;;;;;;;;;;5093994;28;20051;-70
2022/01/12 14:29:14;;;;;;;65.88;22.90;;;;;;;;;;5093900;28;20399;-74
2022/01/12 14:31:41;;;;;;;61.22;22.35;;;;;;;;;;5112028;28;20391;-71
2022/01/12 14:34:07;;;;;;;73.75;23.33;;;;;;;;;;5112007;28;20048;-72
2022/01/12 14:36:34;;;;;;;72.53;24.80;;;;;;;;;;5112003;28;20075;-73
2022/01/12 14:39:00;;;;;;;77.32;25.23;;;;;;;;;;5112022;28;20379;-71
2022/01/12 14:41:26;;;;;;;89.45;24.88;;;;;;;;;;5111777;28;20043;-73
2022/01/12 14:43:52;;;;;;;73.72;25.20;;;;;;;;;;5111921;28;20086;-72
2022/01/12 14:46:22;;;;;;;80.25;25.23;;;;;;;;;;5112348;28;20089;-72
2022/01/12 14:48:48;;;;;;;80.45;25.05;;;;;;;;;;5093565;28;20043;-72
2022/01/12 14:51:15;;;;;;;88.40;24.48;;;;;;;;;;5111697;28;20047;-73
2022/01/12 14:53:42;;;;;;;77.78;24.52;;;;;;;;;;5111773;28;20154;-72
2022/01/12 14:56:08;;;;;;;84.32;25.35;;;;;;;;;;5111644;28;20528;-72
2022/01/12 14:58:36;;;;;;;82.03;25.70;;;;;;;;;;5093445;28;20491;-71
2022/01/12 15:01:02;;;;;;;82.55;24.75;;;;;;;;;;5112105;28;20395;-70
2022/01/12 15:03:28;;;;;;;;;;;;;;;;;;5111843;28;20047;-72
2022/01/12 15:05:58;;;;;;;87.03;25.08;;;;;;;;;;5111767;28;19923;-71
2022/01/12 15:08:25;;;;;;;81.03;24.63;;;;;;;;;;5111463;28;20054;-72
2022/01/12 15:10:51;;;;;;;91.90;25.20;;;;;;;;;;5127826;27;20105;-72
2022/01/12 15:13:24;;;;;;;94.45;25.83;;;;;;;;;;5094488;28;20047;-72
2022/01/12 15:15:52;;;;;;;85.53;24.05;;;;;;;;;;5093841;28;20487;-70
2022/01/12 15:18:19;;;;;;;100.38;26.35;;;;;;;;;;5094425;28;20048;-69
2022/01/12 15:20:45;;;;;;;101.97;26.23;;;;;;;;;;5111691;28;20131;-70
2022/01/12 15:23:12;;;;;;;90.32;26.33;;;;;;;;;;5112247;28;20131;-70
2022/01/12 15:25:38;;;;;;;90.10;26.08;;;;;;;;;;5111645;28;20051;-71
2022/01/12 15:28:08;;;;;;;102.18;28.40;;;;;;;;;;5112182;28;20104;-69
2022/01/12 15:30:39;;;;;;;101.63;28.38;;;;;;;;;;5112125;28;20054;-70